createdAt,value
2017-12-29T00:01:15.070Z,94.20
2017-12-29T00:03:42.713Z,94.00
2017-12-29T00:06:11.274Z,93.70
2017-12-29T00:08:39.094Z,93.70
2017-12-29T00:11:06.680Z,93.50
2017-12-29T00:13:34.251Z,93.60
2017-12-29T00:16:01.873Z,93.60
2017-12-29T00:18:29.483Z,93.80
2017-12-29T00:20:57.106Z,93.80
2017-12-29T00:23:24.675Z,93.70
2017-12-29T00:25:52.298Z,93.80
2017-12-29T00:28:19.882Z,93.80
2017-12-29T00:30:47.518Z,93.90
2017-12-29T00:33:15.242Z,94.00
2017-12-29T00:35:43.115Z,94.00
2017-12-29T00:38:10.813Z,94.20
2017-12-29T00:40:38.389Z,94.20
2017-12-29T00:43:05.996Z,94.30
2017-12-29T00:45:33.567Z,94.30
2017-12-29T00:48:01.175Z,94.20
2017-12-29T00:50:28.794Z,94.10
2017-12-29T00:52:56.745Z,93.80
2017-12-29T00:55:24.434Z,93.70
2017-12-29T00:57:52.836Z,93.80
2017-12-29T01:00:20.558Z,93.70
2017-12-29T01:02:48.139Z,93.90
2017-12-29T01:05:15.720Z,93.90
2017-12-29T01:07:43.380Z,94.00
2017-12-29T01:10:10.952Z,94.10
2017-12-29T01:12:38.612Z,94.20
2017-12-29T01:15:06.191Z,94.30
2017-12-29T01:17:33.780Z,94.50
2017-12-29T01:20:01.425Z,94.80
2017-12-29T01:22:28.993Z,94.80
2017-12-29T01:24:56.614Z,94.90
2017-12-29T01:27:24.206Z,95.00
2017-12-29T01:29:51.771Z,95.00
2017-12-29T01:32:19.393Z,95.10
2017-12-29T01:34:47.033Z,95.20
2017-12-29T01:37:14.680Z,95.30
2017-12-29T01:39:42.270Z,95.50
2017-12-29T01:42:09.970Z,95.50
2017-12-29T01:44:37.642Z,95.50
2017-12-29T01:47:05.285Z,95.20
2017-12-29T01:49:32.873Z,95.00
2017-12-29T01:52:00.486Z,94.80
2017-12-29T01:54:28.114Z,94.80
2017-12-29T01:56:55.732Z,94.80
2017-12-29T01:59:23.344Z,94.70
2017-12-29T02:01:50.916Z,94.60
2017-12-29T02:04:18.548Z,94.60
2017-12-29T02:06:46.139Z,94.90
2017-12-29T02:09:13.714Z,94.60
2017-12-29T02:11:42.145Z,94.80
2017-12-29T02:14:09.737Z,94.80
2017-12-29T02:16:37.347Z,94.80
2017-12-29T02:19:04.920Z,94.80
2017-12-29T02:21:32.545Z,94.80
2017-12-29T02:24:00.117Z,94.90
2017-12-29T02:26:27.689Z,95.10
2017-12-29T02:28:55.316Z,95.30
2017-12-29T02:31:22.888Z,95.40
2017-12-29T02:33:50.498Z,95.50
2017-12-29T02:36:18.121Z,95.70
2017-12-29T02:38:45.702Z,95.70
2017-12-29T02:41:13.314Z,95.80
2017-12-29T02:43:40.962Z,96.00
2017-12-29T02:46:08.534Z,96.00
2017-12-29T02:48:36.107Z,96.10
2017-12-29T02:51:04.471Z,96.50
2017-12-29T02:53:32.045Z,96.40
2017-12-29T02:55:59.671Z,96.50
2017-12-29T02:58:27.410Z,96.80
2017-12-29T03:00:54.982Z,96.90
2017-12-29T03:03:22.548Z,96.90
2017-12-29T03:05:50.207Z,96.70
2017-12-29T03:08:17.766Z,96.50
2017-12-29T03:10:45.404Z,96.40
2017-12-29T03:13:12.984Z,96.40
2017-12-29T03:15:40.599Z,96.40
2017-12-29T03:18:08.940Z,96.50
2017-12-29T03:20:36.551Z,96.50
2017-12-29T03:23:04.122Z,96.50
2017-12-29T03:25:31.691Z,96.60
2017-12-29T03:27:59.392Z,96.60
2017-12-29T03:30:26.975Z,96.60
2017-12-29T03:32:54.565Z,96.70
2017-12-29T03:35:22.162Z,96.70
2017-12-29T03:37:49.875Z,96.70
2017-12-29T03:40:18.211Z,96.70
2017-12-29T03:42:45.788Z,96.60
2017-12-29T03:45:13.408Z,96.70
2017-12-29T03:47:40.985Z,96.60
2017-12-29T03:50:08.656Z,96.60
2017-12-29T03:52:37.078Z,96.50
2017-12-29T03:55:05.460Z,96.50
2017-12-29T03:57:33.812Z,96.30
2017-12-29T04:00:01.433Z,96.30
2017-12-29T04:02:29.011Z,96.20
2017-12-29T04:04:56.588Z,96.20
2017-12-29T04:07:24.217Z,96.10
2017-12-29T04:09:51.845Z,96.20
2017-12-29T04:12:19.417Z,96.10
2017-12-29T04:14:47.101Z,96.00
2017-12-29T04:17:14.725Z,95.90
2017-12-29T04:19:43.112Z,95.80
2017-12-29T04:22:11.448Z,95.80
2017-12-29T04:24:39.067Z,95.80
2017-12-29T04:27:06.681Z,95.80
2017-12-29T04:29:34.336Z,95.80
2017-12-29T04:32:01.957Z,95.90
2017-12-29T04:34:29.532Z,96.00
2017-12-29T04:36:57.275Z,96.10
2017-12-29T04:39:24.848Z,96.20
2017-12-29T04:41:52.427Z,96.20
2017-12-29T04:44:20.079Z,96.30
2017-12-29T04:46:47.691Z,96.20
2017-12-29T04:49:15.312Z,96.30
2017-12-29T04:51:43.076Z,96.30
2017-12-29T04:54:10.787Z,96.50
2017-12-29T04:56:38.428Z,96.60
2017-12-29T04:59:06.030Z,96.90
2017-12-29T05:01:33.649Z,96.90
2017-12-29T05:04:01.323Z,96.90
2017-12-29T05:06:29.688Z,97.00
2017-12-29T05:08:57.262Z,97.00
2017-12-29T05:11:24.868Z,97.00
2017-12-29T05:13:52.454Z,97.00
2017-12-29T05:16:20.069Z,96.90
2017-12-29T05:18:47.697Z,96.60
2017-12-29T05:21:15.390Z,96.20
2017-12-29T05:23:43.762Z,95.70
2017-12-29T05:26:12.100Z,95.90
2017-12-29T05:28:39.893Z,95.60
2017-12-29T05:31:07.509Z,95.60
2017-12-29T05:33:35.138Z,95.50
2017-12-29T05:36:03.523Z,95.50
2017-12-29T05:38:31.104Z,95.50
2017-12-29T05:40:58.736Z,95.30
2017-12-29T05:43:27.075Z,95.00
2017-12-29T05:45:54.764Z,95.00
2017-12-29T05:48:22.352Z,94.90
2017-12-29T05:50:49.982Z,94.80
2017-12-29T05:53:17.555Z,94.60
2017-12-29T05:55:45.914Z,94.60
2017-12-29T05:58:13.547Z,94.60
2017-12-29T06:00:41.179Z,94.60
2017-12-29T06:03:08.797Z,94.60
2017-12-29T06:05:36.400Z,94.60
2017-12-29T06:08:04.125Z,94.40
2017-12-29T06:10:31.755Z,94.40
2017-12-29T06:12:59.373Z,94.30
2017-12-29T06:15:27.775Z,94.30
2017-12-29T06:17:55.349Z,94.30
2017-12-29T06:20:22.959Z,94.30
2017-12-29T06:22:50.603Z,94.30
2017-12-29T06:25:18.216Z,94.30
2017-12-29T06:27:45.792Z,94.30
2017-12-29T06:30:13.417Z,94.30
2017-12-29T06:32:41.761Z,94.40
2017-12-29T06:35:09.421Z,94.20
2017-12-29T06:37:37.031Z,94.40
2017-12-29T06:40:05.410Z,94.30
2017-12-29T06:42:33.805Z,94.30
2017-12-29T06:45:01.429Z,94.30
2017-12-29T06:47:29.032Z,94.20
2017-12-29T06:49:56.647Z,94.20
2017-12-29T06:52:24.254Z,94.20
2017-12-29T06:54:51.892Z,94.40
2017-12-29T06:57:19.463Z,94.50
2017-12-29T06:59:47.803Z,94.50
2017-12-29T07:02:15.435Z,94.50
2017-12-29T07:04:43.014Z,94.50
2017-12-29T07:07:10.627Z,94.40
2017-12-29T07:09:38.211Z,94.40
2017-12-29T07:12:05.857Z,94.50
2017-12-29T07:14:33.467Z,94.50
2017-12-29T07:17:01.083Z,94.60
2017-12-29T07:19:28.709Z,94.50
2017-12-29T07:21:56.300Z,94.50
2017-12-29T07:24:24.148Z,94.50
2017-12-29T07:26:52.000Z,94.80
2017-12-29T07:29:19.575Z,94.80
2017-12-29T07:31:47.199Z,95.10
2017-12-29T07:34:14.776Z,95.10
2017-12-29T07:36:42.449Z,95.30
2017-12-29T07:39:10.014Z,95.40
2017-12-29T07:41:37.600Z,95.30
2017-12-29T07:44:05.239Z,95.50
2017-12-29T07:46:32.826Z,95.50
2017-12-29T07:49:00.480Z,95.50
2017-12-29T07:51:28.112Z,95.50
2017-12-29T07:53:55.739Z,95.60
2017-12-29T07:56:23.322Z,95.60
2017-12-29T07:58:50.983Z,95.60
2017-12-29T08:01:18.612Z,95.60
2017-12-29T08:03:46.274Z,95.70
2017-12-29T08:06:16.467Z,95.70
2017-12-29T08:08:45.856Z,96.00
2017-12-29T08:11:13.472Z,96.20
2017-12-29T08:13:41.179Z,96.40
2017-12-29T08:16:08.827Z,96.40
2017-12-29T08:18:36.434Z,96.50
2017-12-29T08:21:04.009Z,96.50
2017-12-29T08:23:31.691Z,96.50
2017-12-29T08:25:59.275Z,96.60
2017-12-29T08:28:26.947Z,96.50
2017-12-29T08:30:54.531Z,96.50
2017-12-29T08:33:22.891Z,96.60
2017-12-29T08:35:50.506Z,96.60
2017-12-29T08:38:18.084Z,96.60
2017-12-29T08:40:45.719Z,96.70
2017-12-29T08:43:13.320Z,96.70
2017-12-29T08:45:40.906Z,96.70
2017-12-29T08:48:08.538Z,96.60
2017-12-29T08:50:36.121Z,96.60
2017-12-29T08:53:03.742Z,96.50
2017-12-29T08:55:31.317Z,96.50
2017-12-29T08:57:58.935Z,96.50
2017-12-29T09:00:26.557Z,96.40
2017-12-29T09:02:54.171Z,96.40
2017-12-29T09:05:21.754Z,96.40
2017-12-29T09:07:49.768Z,96.30
2017-12-29T09:10:18.124Z,96.30
2017-12-29T09:12:45.712Z,96.30
2017-12-29T09:15:13.337Z,96.30
2017-12-29T09:17:40.923Z,96.30
2017-12-29T09:20:08.539Z,96.20
2017-12-29T09:22:36.127Z,96.20
2017-12-29T09:25:03.770Z,96.50
2017-12-29T09:27:31.345Z,96.20
2017-12-29T09:29:58.977Z,96.40
2017-12-29T09:32:26.592Z,96.20
2017-12-29T09:34:54.216Z,96.20
2017-12-29T09:37:21.804Z,96.20
2017-12-29T09:39:49.425Z,96.20
2017-12-29T09:42:17.041Z,96.20
2017-12-29T09:44:44.622Z,96.20
2017-12-29T09:47:12.246Z,96.10
2017-12-29T09:49:39.838Z,96.10
2017-12-29T09:52:07.419Z,95.90
2017-12-29T09:54:35.051Z,95.80
2017-12-29T09:57:02.648Z,95.70
2017-12-29T09:59:30.228Z,95.70
2017-12-29T10:01:57.859Z,95.60
2017-12-29T10:04:25.446Z,95.50
2017-12-29T10:06:53.030Z,95.50
2017-12-29T10:09:20.656Z,95.60
2017-12-29T10:11:48.240Z,95.50
2017-12-29T10:14:15.850Z,95.60
2017-12-29T10:16:43.456Z,95.50
2017-12-29T10:19:11.035Z,95.50
2017-12-29T10:21:38.687Z,95.50
2017-12-29T10:24:06.306Z,95.40
2017-12-29T10:26:33.887Z,95.40
2017-12-29T10:29:01.506Z,95.20
2017-12-29T10:31:29.207Z,95.10
2017-12-29T10:33:56.841Z,94.90
2017-12-29T10:36:24.421Z,94.80
2017-12-29T10:38:52.013Z,94.70
2017-12-29T10:41:19.638Z,94.50
2017-12-29T10:43:47.986Z,94.20
2017-12-29T10:46:15.614Z,94.10
2017-12-29T10:48:43.191Z,94.00
2017-12-29T10:51:10.798Z,93.90
2017-12-29T10:53:38.426Z,93.90
2017-12-29T10:56:06.094Z,93.80
2017-12-29T10:58:33.675Z,93.90
2017-12-29T11:01:02.031Z,94.00
2017-12-29T11:03:29.656Z,93.90
2017-12-29T11:05:57.228Z,93.70
2017-12-29T11:08:24.841Z,93.70
2017-12-29T11:10:52.425Z,93.70
2017-12-29T11:13:20.054Z,93.50
2017-12-29T11:15:47.643Z,93.20
2017-12-29T11:18:15.224Z,92.90
2017-12-29T11:20:42.835Z,93.00
2017-12-29T11:23:10.406Z,92.90
2017-12-29T11:25:38.785Z,93.10
2017-12-29T11:28:07.169Z,93.40
2017-12-29T11:30:35.551Z,93.40
2017-12-29T11:33:03.885Z,93.40
2017-12-29T11:35:31.499Z,93.40
2017-12-29T11:37:59.068Z,93.10
2017-12-29T11:40:26.707Z,92.70
2017-12-29T11:42:54.291Z,92.40
2017-12-29T11:45:21.860Z,92.20
2017-12-29T11:47:49.481Z,92.00
2017-12-29T11:50:17.101Z,92.00
2017-12-29T11:52:44.761Z,91.80
2017-12-29T11:55:12.382Z,91.60
2017-12-29T11:57:40.006Z,91.40
2017-12-29T12:00:07.578Z,91.40
2017-12-29T12:02:35.199Z,91.30
2017-12-29T12:05:02.770Z,91.50
2017-12-29T12:07:30.385Z,91.70
2017-12-29T12:09:58.011Z,91.90
2017-12-29T12:12:25.603Z,91.90
2017-12-29T12:14:53.176Z,91.90
2017-12-29T12:17:21.563Z,92.00
2017-12-29T12:19:49.183Z,91.90
2017-12-29T12:22:16.814Z,91.90
2017-12-29T12:24:44.439Z,91.80
2017-12-29T12:27:14.535Z,91.90
2017-12-29T12:29:42.915Z,92.20
2017-12-29T12:32:10.534Z,92.20
2017-12-29T12:34:38.145Z,92.50
2017-12-29T12:37:05.733Z,92.50
2017-12-29T12:39:33.359Z,92.40
2017-12-29T12:42:00.944Z,92.40
2017-12-29T12:44:28.560Z,92.50
2017-12-29T12:46:56.187Z,92.50
2017-12-29T12:49:23.769Z,92.60
2017-12-29T12:51:51.379Z,92.60
2017-12-29T12:54:18.962Z,92.50
2017-12-29T12:56:46.591Z,92.60
2017-12-29T12:59:14.209Z,92.40
2017-12-29T13:01:41.820Z,92.20
2017-12-29T13:04:09.460Z,92.00
2017-12-29T13:06:37.041Z,91.90
2017-12-29T13:09:04.620Z,92.00
2017-12-29T13:11:33.010Z,92.00
2017-12-29T13:14:00.623Z,91.90
2017-12-29T13:16:28.244Z,91.90
2017-12-29T13:18:55.866Z,91.90
2017-12-29T13:21:23.484Z,91.70
2017-12-29T13:23:51.063Z,91.50
2017-12-29T13:26:18.677Z,91.40
2017-12-29T13:28:46.251Z,91.40
2017-12-29T13:31:13.861Z,91.50
2017-12-29T13:33:41.449Z,91.60
2017-12-29T13:36:09.060Z,91.40
2017-12-29T13:38:36.673Z,91.30
2017-12-29T13:41:04.256Z,91.00
2017-12-29T13:43:31.886Z,90.80
2017-12-29T13:45:59.460Z,90.90
2017-12-29T13:48:29.948Z,90.60
2017-12-29T13:50:57.560Z,90.60
2017-12-29T13:53:25.144Z,90.20
2017-12-29T13:55:52.763Z,90.40
2017-12-29T13:58:21.143Z,90.40
2017-12-29T14:00:49.492Z,90.50
2017-12-29T14:03:17.102Z,90.50
2017-12-29T14:05:44.678Z,90.20
2017-12-29T14:08:12.296Z,90.30
2017-12-29T14:10:42.538Z,90.40
2017-12-29T14:13:10.112Z,90.40
2017-12-29T14:15:37.728Z,90.30
2017-12-29T14:18:05.347Z,90.20
2017-12-29T14:20:32.911Z,90.30
2017-12-29T14:23:00.526Z,90.30
2017-12-29T14:25:28.136Z,90.30
2017-12-29T14:27:55.752Z,90.20
2017-12-29T14:30:23.378Z,90.40
2017-12-29T14:32:50.982Z,90.20
2017-12-29T14:35:18.547Z,90.10
2017-12-29T14:37:46.929Z,90.00
2017-12-29T14:40:15.259Z,90.00
2017-12-29T14:42:42.876Z,90.00
2017-12-29T14:45:10.443Z,90.00
2017-12-29T14:47:38.012Z,90.00
2017-12-29T14:50:05.619Z,90.00
2017-12-29T14:52:33.193Z,89.90
2017-12-29T14:55:00.805Z,89.60
2017-12-29T14:57:28.375Z,89.50
2017-12-29T14:59:55.988Z,89.70
2017-12-29T15:02:23.556Z,89.10
2017-12-29T15:04:51.132Z,88.70
2017-12-29T15:07:18.749Z,88.60
2017-12-29T15:09:46.359Z,88.60
2017-12-29T15:12:13.999Z,87.50
2017-12-29T15:14:42.487Z,87.80
2017-12-29T15:17:10.821Z,87.70
2017-12-29T15:19:38.392Z,87.70
2017-12-29T15:22:06.002Z,87.60
2017-12-29T15:24:33.573Z,87.50
2017-12-29T15:27:01.183Z,87.90
2017-12-29T15:29:28.782Z,87.10
2017-12-29T15:31:56.391Z,86.30
2017-12-29T15:34:24.017Z,85.60
2017-12-29T15:36:51.636Z,85.90
2017-12-29T15:39:19.260Z,85.50
2017-12-29T15:41:46.895Z,85.50
2017-12-29T15:44:14.459Z,85.90
2017-12-29T15:46:42.066Z,85.80
2017-12-29T15:49:09.677Z,85.10
2017-12-29T15:51:37.290Z,85.50
2017-12-29T15:54:05.893Z,85.80
2017-12-29T15:56:35.002Z,85.30
2017-12-29T15:59:02.618Z,84.80
2017-12-29T16:01:37.123Z,85.20
2017-12-29T16:04:07.726Z,84.40
2017-12-29T16:06:37.183Z,84.40
2017-12-29T16:09:04.855Z,84.40
2017-12-29T16:11:32.425Z,84.20
2017-12-29T16:14:00.056Z,84.40
2017-12-29T16:16:27.628Z,84.80
2017-12-29T16:18:55.187Z,85.60
2017-12-29T16:21:22.794Z,86.70
2017-12-29T16:23:50.398Z,87.50
2017-12-29T16:26:17.968Z,88.50
2017-12-29T16:28:45.587Z,89.80
2017-12-29T16:31:13.155Z,90.40
2017-12-29T16:33:40.729Z,90.80
2017-12-29T16:36:08.337Z,91.40
2017-12-29T16:38:35.960Z,91.80
2017-12-29T16:41:03.534Z,92.20
2017-12-29T16:43:31.117Z,92.50
2017-12-29T16:45:58.731Z,92.70
2017-12-29T16:48:26.347Z,92.90
2017-12-29T16:50:53.962Z,93.10
2017-12-29T16:53:21.617Z,93.40
2017-12-29T16:55:49.167Z,93.50
2017-12-29T16:58:16.780Z,93.60
2017-12-29T17:00:44.347Z,93.80
2017-12-29T17:03:11.954Z,93.80
2017-12-29T17:05:39.518Z,93.90
2017-12-29T17:08:07.154Z,94.00
2017-12-29T17:10:34.760Z,94.00
2017-12-29T17:13:02.333Z,94.20
2017-12-29T17:15:29.952Z,94.30
2017-12-29T17:17:57.702Z,94.30
2017-12-29T17:20:25.278Z,94.30
2017-12-29T17:22:52.847Z,94.30
2017-12-29T17:25:20.507Z,94.30
2017-12-29T17:27:48.822Z,94.50
2017-12-29T17:30:16.425Z,94.50
2017-12-29T17:32:44.043Z,94.50
2017-12-29T17:35:11.608Z,94.80
2017-12-29T17:37:39.221Z,94.60
2017-12-29T17:40:06.805Z,94.60
2017-12-29T17:42:34.430Z,94.60
2017-12-29T17:45:02.045Z,94.60
2017-12-29T17:47:29.656Z,94.70
2017-12-29T17:49:57.271Z,94.80
2017-12-29T17:52:24.841Z,94.80
2017-12-29T17:54:52.454Z,94.80
2017-12-29T17:57:20.069Z,94.80
2017-12-29T17:59:47.636Z,94.90
2017-12-29T18:02:15.533Z,94.90
2017-12-29T18:04:43.107Z,94.80
2017-12-29T18:07:10.717Z,94.90
2017-12-29T18:09:38.290Z,94.90
2017-12-29T18:12:05.895Z,94.90
2017-12-29T18:14:33.508Z,95.00
2017-12-29T18:17:01.088Z,95.10
2017-12-29T18:19:29.416Z,95.10
2017-12-29T18:21:57.021Z,95.10
2017-12-29T18:24:24.596Z,95.10
2017-12-29T18:26:52.223Z,95.20
2017-12-29T18:29:19.795Z,95.20
2017-12-29T18:31:47.363Z,95.20
2017-12-29T18:34:15.746Z,95.40
2017-12-29T18:36:44.083Z,95.20
2017-12-29T18:39:11.687Z,95.20
2017-12-29T18:41:39.295Z,95.10
2017-12-29T18:44:06.860Z,95.20
2017-12-29T18:46:34.472Z,95.30
2017-12-29T18:49:02.035Z,95.40
2017-12-29T18:51:30.402Z,95.50
2017-12-29T18:53:58.011Z,95.50
2017-12-29T18:56:25.628Z,95.50
2017-12-29T18:58:53.961Z,95.60
2017-12-29T19:01:21.721Z,95.50
2017-12-29T19:03:49.344Z,95.60
2017-12-29T19:06:16.909Z,95.50
2017-12-29T19:08:44.484Z,95.50
2017-12-29T19:11:12.095Z,95.60
2017-12-29T19:13:39.706Z,95.60
2017-12-29T19:16:07.310Z,95.60
2017-12-29T19:18:34.882Z,95.70
2017-12-29T19:21:02.506Z,95.70
2017-12-29T19:23:30.081Z,95.70
2017-12-29T19:25:57.697Z,95.70
2017-12-29T19:28:25.309Z,95.80
2017-12-29T19:30:52.888Z,95.80
2017-12-29T19:33:20.509Z,95.80
2017-12-29T19:35:48.128Z,95.70
2017-12-29T19:38:15.729Z,95.60
2017-12-29T19:40:43.356Z,95.60
2017-12-29T19:43:10.937Z,95.50
2017-12-29T19:45:38.542Z,95.50
2017-12-29T19:48:06.161Z,95.60
2017-12-29T19:50:33.730Z,95.60
2017-12-29T19:53:01.346Z,95.60
2017-12-29T19:55:28.933Z,95.60
2017-12-29T19:57:57.311Z,95.70
2017-12-29T20:00:25.706Z,95.70
2017-12-29T20:02:53.278Z,95.70
2017-12-29T20:05:20.901Z,95.70
2017-12-29T20:07:49.242Z,95.70
2017-12-29T20:10:16.862Z,95.70
2017-12-29T20:12:44.446Z,95.70
2017-12-29T20:15:12.066Z,95.70
2017-12-29T20:17:39.687Z,95.80
2017-12-29T20:20:07.260Z,95.80
2017-12-29T20:22:34.878Z,95.90
2017-12-29T20:25:02.454Z,95.90
2017-12-29T20:27:30.081Z,95.80
2017-12-29T20:29:57.662Z,95.90
2017-12-29T20:32:25.277Z,95.80
2017-12-29T20:34:52.918Z,95.80
2017-12-29T20:37:20.496Z,95.90
2017-12-29T20:39:48.071Z,95.90
2017-12-29T20:42:15.690Z,95.90
2017-12-29T20:44:43.272Z,96.20
2017-12-29T20:47:10.885Z,95.90
2017-12-29T20:49:38.521Z,95.90
2017-12-29T20:52:06.930Z,95.90
2017-12-29T20:54:34.508Z,95.90
2017-12-29T20:57:02.080Z,95.80
2017-12-29T20:59:29.700Z,95.90
2017-12-29T21:01:57.279Z,95.90
2017-12-29T21:04:24.927Z,95.90
2017-12-29T21:06:52.526Z,95.90
2017-12-29T21:09:20.120Z,96.00
2017-12-29T21:11:48.503Z,96.10
2017-12-29T21:14:16.845Z,96.10
2017-12-29T21:16:44.456Z,96.10
2017-12-29T21:19:12.044Z,96.10
2017-12-29T21:21:39.654Z,96.20
2017-12-29T21:24:07.232Z,96.20
2017-12-29T21:26:35.631Z,96.30
2017-12-29T21:29:03.979Z,96.30
2017-12-29T21:31:31.614Z,96.30
2017-12-29T21:33:59.584Z,96.40
2017-12-29T21:36:27.339Z,96.40
2017-12-29T21:38:54.947Z,96.40
2017-12-29T21:41:22.527Z,96.40
2017-12-29T21:43:50.929Z,96.50
2017-12-29T21:46:18.512Z,96.50
2017-12-29T21:48:46.095Z,96.60
2017-12-29T21:51:13.724Z,96.60
2017-12-29T21:53:41.309Z,96.70
2017-12-29T21:56:08.919Z,96.60
2017-12-29T21:58:36.538Z,96.60
2017-12-29T22:01:04.167Z,96.70
2017-12-29T22:03:31.789Z,96.60
2017-12-29T22:06:00.175Z,97.00
2017-12-29T22:08:28.524Z,96.70
2017-12-29T22:10:56.149Z,96.70
2017-12-29T22:13:23.732Z,96.70
2017-12-29T22:15:51.351Z,96.60
2017-12-29T22:18:18.971Z,96.70
2017-12-29T22:20:46.575Z,96.70
2017-12-29T22:23:14.160Z,96.70
2017-12-29T22:25:41.780Z,96.70
2017-12-29T22:28:10.178Z,96.60
2017-12-29T22:30:37.762Z,96.60
2017-12-29T22:33:05.335Z,96.70
2017-12-29T22:35:32.946Z,96.60
2017-12-29T22:38:00.524Z,96.70
2017-12-29T22:40:28.164Z,96.70
2017-12-29T22:42:55.745Z,96.70
2017-12-29T22:45:23.326Z,96.70
2017-12-29T22:47:50.954Z,96.60
2017-12-29T22:50:19.351Z,96.70
2017-12-29T22:52:46.932Z,96.70
2017-12-29T22:55:14.517Z,96.70
2017-12-29T22:57:42.132Z,96.70
2017-12-29T23:00:09.715Z,96.70
2017-12-29T23:02:37.347Z,96.80
2017-12-29T23:05:04.924Z,96.90
2017-12-29T23:07:32.513Z,97.00
2017-12-29T23:10:00.125Z,97.10
2017-12-29T23:12:27.700Z,97.20
2017-12-29T23:14:55.283Z,97.20
2017-12-29T23:17:22.906Z,97.20
2017-12-29T23:19:51.248Z,97.40
2017-12-29T23:22:18.860Z,97.30
2017-12-29T23:24:46.486Z,97.40
2017-12-29T23:27:14.050Z,97.50
2017-12-29T23:29:41.661Z,97.90
2017-12-29T23:32:09.245Z,97.70
2017-12-29T23:34:36.867Z,97.80
2017-12-29T23:37:04.446Z,97.80
2017-12-29T23:39:32.031Z,97.80
2017-12-29T23:42:00.596Z,97.90
2017-12-29T23:44:28.181Z,97.90
2017-12-29T23:46:56.067Z,97.90
2017-12-29T23:49:26.656Z,97.90
2017-12-29T23:51:55.289Z,98.00
2017-12-29T23:54:22.882Z,98.00
2017-12-29T23:56:50.492Z,98.00
2017-12-29T23:59:18.068Z,98.00
